sensor_id;sensor_type;location;lat;lon;timestamp;P1;durP1;ratioP1;P2;durP2;ratioP2
22415;SDS011;12204;50.600;4.608;2023-02-15T00:02:39;7.72;;;4.57;;
22415;SDS011;12204;50.600;4.608;2023-02-15T00:07:42;8.00;;;4.63;;
22415;SDS011;12204;50.600;4.608;2023-02-15T00:12:46;8.35;;;4.50;;
22415;SDS011;12204;50.600;4.608;2023-02-15T00:17:51;7.70;;;4.30;;
22415;SDS011;12204;50.600;4.608;2023-02-15T00:22:54;7.63;;;4.57;;
22415;SDS011;12204;50.600;4.608;2023-02-15T00:27:59;9.32;;;5.03;;
22415;SDS011;12204;50.600;4.608;2023-02-15T00:33:04;7.80;;;4.70;;
22415;SDS011;12204;50.600;4.608;2023-02-15T00:38:07;9.80;;;4.75;;
22415;SDS011;12204;50.600;4.608;2023-02-15T00:43:11;8.40;;;4.72;;
22415;SDS011;12204;50.600;4.608;2023-02-15T00:48:18;9.00;;;4.78;;
22415;SDS011;12204;50.600;4.608;2023-02-15T00:53:22;8.73;;;4.60;;
22415;SDS011;12204;50.600;4.608;2023-02-15T00:58:26;9.80;;;4.63;;
22415;SDS011;12204;50.600;4.608;2023-02-15T01:03:31;9.50;;;4.80;;
22415;SDS011;12204;50.600;4.608;2023-02-15T01:08:36;8.07;;;4.53;;
22415;SDS011;12204;50.600;4.608;2023-02-15T01:13:41;7.88;;;4.35;;
22415;SDS011;12204;50.600;4.608;2023-02-15T01:18:46;8.60;;;4.82;;
22415;SDS011;12204;50.600;4.608;2023-02-15T01:23:50;7.78;;;4.65;;
22415;SDS011;12204;50.600;4.608;2023-02-15T01:28:54;8.70;;;4.70;;
22415;SDS011;12204;50.600;4.608;2023-02-15T01:33:59;7.68;;;4.50;;
22415;SDS011;12204;50.600;4.608;2023-02-15T01:39:02;8.40;;;4.30;;
22415;SDS011;12204;50.600;4.608;2023-02-15T01:49:51;8.88;;;5.00;;
22415;SDS011;12204;50.600;4.608;2023-02-15T01:55:06;9.30;;;4.97;;
22415;SDS011;12204;50.600;4.608;2023-02-15T02:00:11;7.78;;;4.57;;
22415;SDS011;12204;50.600;4.608;2023-02-15T02:05:23;7.80;;;4.50;;
22415;SDS011;12204;50.600;4.608;2023-02-15T02:10:27;8.05;;;4.63;;
22415;SDS011;12204;50.600;4.608;2023-02-15T02:15:33;8.52;;;4.70;;
22415;SDS011;12204;50.600;4.608;2023-02-15T02:20:59;8.88;;;4.60;;
22415;SDS011;12204;50.600;4.608;2023-02-15T02:32:32;8.52;;;4.90;;
22415;SDS011;12204;50.600;4.608;2023-02-15T02:38:27;8.65;;;5.00;;
22415;SDS011;12204;50.600;4.608;2023-02-15T02:43:43;8.55;;;4.80;;
22415;SDS011;12204;50.600;4.608;2023-02-15T02:48:58;9.60;;;4.80;;
22415;SDS011;12204;50.600;4.608;2023-02-15T02:54:05;8.55;;;4.65;;
22415;SDS011;12204;50.600;4.608;2023-02-15T02:59:10;7.93;;;4.45;;
22415;SDS011;12204;50.600;4.608;2023-02-15T03:04:22;7.82;;;4.07;;
22415;SDS011;12204;50.600;4.608;2023-02-15T03:09:31;7.65;;;4.50;;
22415;SDS011;12204;50.600;4.608;2023-02-15T03:14:47;8.10;;;4.68;;
22415;SDS011;12204;50.600;4.608;2023-02-15T03:19:56;8.38;;;4.93;;
22415;SDS011;12204;50.600;4.608;2023-02-15T03:25:09;8.27;;;4.30;;
22415;SDS011;12204;50.600;4.608;2023-02-15T03:30:18;7.47;;;4.30;;
22415;SDS011;12204;50.600;4.608;2023-02-15T03:35:27;8.23;;;4.63;;
22415;SDS011;12204;50.600;4.608;2023-02-15T03:40:40;7.55;;;4.25;;
22415;SDS011;12204;50.600;4.608;2023-02-15T03:46:05;7.07;;;3.92;;
22415;SDS011;12204;50.600;4.608;2023-02-15T03:51:20;7.65;;;4.20;;
22415;SDS011;12204;50.600;4.608;2023-02-15T03:56:37;7.57;;;4.35;;
22415;SDS011;12204;50.600;4.608;2023-02-15T04:02:06;7.53;;;4.13;;
22415;SDS011;12204;50.600;4.608;2023-02-15T04:07:21;7.22;;;4.20;;
22415;SDS011;12204;50.600;4.608;2023-02-15T04:12:24;7.97;;;4.30;;
22415;SDS011;12204;50.600;4.608;2023-02-15T04:17:28;8.05;;;4.20;;
22415;SDS011;12204;50.600;4.608;2023-02-15T04:22:33;7.45;;;4.20;;
22415;SDS011;12204;50.600;4.608;2023-02-15T04:27:54;7.82;;;4.70;;
22415;SDS011;12204;50.600;4.608;2023-02-15T04:32:58;7.90;;;4.45;;
22415;SDS011;12204;50.600;4.608;2023-02-15T04:38:02;9.60;;;4.60;;
22415;SDS011;12204;50.600;4.608;2023-02-15T04:43:06;6.70;;;4.03;;
22415;SDS011;12204;50.600;4.608;2023-02-15T04:48:09;7.30;;;4.35;;
22415;SDS011;12204;50.600;4.608;2023-02-15T04:53:14;7.70;;;4.05;;
22415;SDS011;12204;50.600;4.608;2023-02-15T04:58:19;7.22;;;4.30;;
22415;SDS011;12204;50.600;4.608;2023-02-15T05:03:23;8.25;;;4.20;;
22415;SDS011;12204;50.600;4.608;2023-02-15T05:08:28;7.05;;;3.75;;
22415;SDS011;12204;50.600;4.608;2023-02-15T05:13:32;7.20;;;3.97;;
22415;SDS011;12204;50.600;4.608;2023-02-15T05:18:35;6.30;;;3.92;;
22415;SDS011;12204;50.600;4.608;2023-02-15T05:23:40;7.28;;;4.25;;
22415;SDS011;12204;50.600;4.608;2023-02-15T05:28:44;7.30;;;4.40;;
22415;SDS011;12204;50.600;4.608;2023-02-15T05:33:47;7.72;;;4.20;;
22415;SDS011;12204;50.600;4.608;2023-02-15T05:38:52;7.05;;;4.00;;
22415;SDS011;12204;50.600;4.608;2023-02-15T05:43:56;6.80;;;3.95;;
22415;SDS011;12204;50.600;4.608;2023-02-15T05:48:59;6.90;;;3.92;;
22415;SDS011;12204;50.600;4.608;2023-02-15T05:54:04;6.65;;;3.97;;
22415;SDS011;12204;50.600;4.608;2023-02-15T05:59:07;7.18;;;3.90;;
22415;SDS011;12204;50.600;4.608;2023-02-15T06:04:12;7.40;;;4.13;;
22415;SDS011;12204;50.600;4.608;2023-02-15T06:09:17;7.00;;;4.00;;
22415;SDS011;12204;50.600;4.608;2023-02-15T06:14:21;6.65;;;3.92;;
22415;SDS011;12204;50.600;4.608;2023-02-15T06:19:24;7.07;;;4.13;;
22415;SDS011;12204;50.600;4.608;2023-02-15T06:24:29;7.68;;;4.03;;
22415;SDS011;12204;50.600;4.608;2023-02-15T06:29:32;7.70;;;4.00;;
22415;SDS011;12204;50.600;4.608;2023-02-15T06:34:36;6.25;;;3.75;;
22415;SDS011;12204;50.600;4.608;2023-02-15T06:39:40;7.22;;;4.10;;
22415;SDS011;12204;50.600;4.608;2023-02-15T06:44:45;6.55;;;3.83;;
22415;SDS011;12204;50.600;4.608;2023-02-15T06:49:48;6.63;;;3.85;;
22415;SDS011;12204;50.600;4.608;2023-02-15T06:54:53;6.97;;;3.90;;
22415;SDS011;12204;50.600;4.608;2023-02-15T06:59:56;7.78;;;4.30;;
22415;SDS011;12204;50.600;4.608;2023-02-15T07:05:00;7.28;;;3.97;;
22415;SDS011;12204;50.600;4.608;2023-02-15T07:10:08;6.22;;;3.70;;
22415;SDS011;12204;50.600;4.608;2023-02-15T07:15:13;6.63;;;3.75;;
22415;SDS011;12204;50.600;4.608;2023-02-15T07:20:20;6.47;;;3.70;;
22415;SDS011;12204;50.600;4.608;2023-02-15T07:25:27;7.63;;;4.05;;
22415;SDS011;12204;50.600;4.608;2023-02-15T07:30:30;6.95;;;3.92;;
22415;SDS011;12204;50.600;4.608;2023-02-15T07:35:34;7.35;;;3.85;;
22415;SDS011;12204;50.600;4.608;2023-02-15T07:40:39;7.05;;;4.07;;
22415;SDS011;12204;50.600;4.608;2023-02-15T07:45:42;8.05;;;4.10;;
22415;SDS011;12204;50.600;4.608;2023-02-15T07:50:46;6.88;;;3.90;;
22415;SDS011;12204;50.600;4.608;2023-02-15T07:55:51;6.97;;;3.70;;
22415;SDS011;12204;50.600;4.608;2023-02-15T08:00:55;7.53;;;3.83;;
22415;SDS011;12204;50.600;4.608;2023-02-15T08:05:59;6.97;;;3.88;;
22415;SDS011;12204;50.600;4.608;2023-02-15T08:11:06;6.43;;;3.78;;
22415;SDS011;12204;50.600;4.608;2023-02-15T08:16:30;6.78;;;3.88;;
22415;SDS011;12204;50.600;4.608;2023-02-15T08:21:38;7.28;;;4.05;;
22415;SDS011;12204;50.600;4.608;2023-02-15T08:26:46;6.03;;;3.50;;
22415;SDS011;12204;50.600;4.608;2023-02-15T08:31:52;6.25;;;3.65;;
22415;SDS011;12204;50.600;4.608;2023-02-15T08:37:00;7.88;;;3.80;;
22415;SDS011;12204;50.600;4.608;2023-02-15T08:42:05;7.25;;;3.90;;
22415;SDS011;12204;50.600;4.608;2023-02-15T08:47:09;7.57;;;3.90;;
22415;SDS011;12204;50.600;4.608;2023-02-15T08:52:12;6.78;;;3.65;;
22415;SDS011;12204;50.600;4.608;2023-02-15T08:57:17;8.50;;;3.67;;
22415;SDS011;12204;50.600;4.608;2023-02-15T09:02:22;7.78;;;3.78;;
22415;SDS011;12204;50.600;4.608;2023-02-15T09:07:25;8.57;;;3.90;;
22415;SDS011;12204;50.600;4.608;2023-02-15T09:12:31;7.95;;;4.10;;
22415;SDS011;12204;50.600;4.608;2023-02-15T09:17:34;10.35;;;3.72;;
22415;SDS011;12204;50.600;4.608;2023-02-15T09:22:37;10.43;;;3.72;;
22415;SDS011;12204;50.600;4.608;2023-02-15T09:27:42;8.80;;;3.67;;
22415;SDS011;12204;50.600;4.608;2023-02-15T09:32:46;11.27;;;4.00;;
22415;SDS011;12204;50.600;4.608;2023-02-15T09:37:50;6.78;;;3.58;;
22415;SDS011;12204;50.600;4.608;2023-02-15T09:43:02;10.43;;;4.38;;
22415;SDS011;12204;50.600;4.608;2023-02-15T09:48:34;8.35;;;3.78;;
22415;SDS011;12204;50.600;4.608;2023-02-15T09:53:48;9.45;;;3.95;;
22415;SDS011;12204;50.600;4.608;2023-02-15T09:59:17;10.15;;;4.00;;
22415;SDS011;12204;50.600;4.608;2023-02-15T10:09:53;12.05;;;3.95;;
22415;SDS011;12204;50.600;4.608;2023-02-15T10:15:15;13.18;;;4.00;;
22415;SDS011;12204;50.600;4.608;2023-02-15T10:20:34;7.03;;;3.85;;
22415;SDS011;12204;50.600;4.608;2023-02-15T10:25:50;8.55;;;4.10;;
22415;SDS011;12204;50.600;4.608;2023-02-15T10:31:04;10.82;;;4.25;;
22415;SDS011;12204;50.600;4.608;2023-02-15T10:36:26;9.52;;;3.90;;
22415;SDS011;12204;50.600;4.608;2023-02-15T10:41:46;7.68;;;3.78;;
22415;SDS011;12204;50.600;4.608;2023-02-15T10:47:12;9.48;;;3.80;;
22415;SDS011;12204;50.600;4.608;2023-02-15T10:52:54;8.10;;;3.83;;
22415;SDS011;12204;50.600;4.608;2023-02-15T10:58:16;9.27;;;3.90;;
22415;SDS011;12204;50.600;4.608;2023-02-15T11:03:43;8.15;;;3.72;;
22415;SDS011;12204;50.600;4.608;2023-02-15T11:09:09;6.85;;;3.65;;
22415;SDS011;12204;50.600;4.608;2023-02-15T11:14:17;8.98;;;4.00;;
22415;SDS011;12204;50.600;4.608;2023-02-15T11:19:42;9.45;;;4.25;;
22415;SDS011;12204;50.600;4.608;2023-02-15T11:24:59;7.38;;;3.70;;
22415;SDS011;12204;50.600;4.608;2023-02-15T11:30:09;8.63;;;4.05;;
22415;SDS011;12204;50.600;4.608;2023-02-15T11:35:19;10.60;;;3.50;;
22415;SDS011;12204;50.600;4.608;2023-02-15T11:40:30;7.97;;;3.80;;
22415;SDS011;12204;50.600;4.608;2023-02-15T11:45:38;9.32;;;4.07;;
22415;SDS011;12204;50.600;4.608;2023-02-15T11:50:46;9.43;;;4.07;;
22415;SDS011;12204;50.600;4.608;2023-02-15T11:55:50;8.40;;;3.85;;
22415;SDS011;12204;50.600;4.608;2023-02-15T12:00:54;7.97;;;4.10;;
22415;SDS011;12204;50.600;4.608;2023-02-15T12:06:05;7.57;;;3.72;;
22415;SDS011;12204;50.600;4.608;2023-02-15T12:11:20;7.53;;;3.90;;
22415;SDS011;12204;50.600;4.608;2023-02-15T12:16:39;8.18;;;3.90;;
22415;SDS011;12204;50.600;4.608;2023-02-15T12:21:48;10.00;;;4.15;;
22415;SDS011;12204;50.600;4.608;2023-02-15T12:26:58;7.40;;;3.88;;
22415;SDS011;12204;50.600;4.608;2023-02-15T12:32:05;8.07;;;3.95;;
22415;SDS011;12204;50.600;4.608;2023-02-15T12:37:16;7.67;;;4.13;;
22415;SDS011;12204;50.600;4.608;2023-02-15T12:42:25;7.32;;;4.20;;
22415;SDS011;12204;50.600;4.608;2023-02-15T12:47:42;8.57;;;4.27;;
22415;SDS011;12204;50.600;4.608;2023-02-15T12:52:48;7.45;;;3.85;;
22415;SDS011;12204;50.600;4.608;2023-02-15T12:58:07;10.30;;;4.60;;
22415;SDS011;12204;50.600;4.608;2023-02-15T13:03:19;10.02;;;4.30;;
22415;SDS011;12204;50.600;4.608;2023-02-15T13:08:28;8.50;;;4.10;;
22415;SDS011;12204;50.600;4.608;2023-02-15T13:13:50;9.23;;;4.00;;
22415;SDS011;12204;50.600;4.608;2023-02-15T13:18:56;8.82;;;4.20;;
22415;SDS011;12204;50.600;4.608;2023-02-15T13:24:04;8.80;;;4.15;;
22415;SDS011;12204;50.600;4.608;2023-02-15T13:29:26;8.70;;;4.07;;
22415;SDS011;12204;50.600;4.608;2023-02-15T13:34:36;9.70;;;4.40;;
22415;SDS011;12204;50.600;4.608;2023-02-15T13:39:43;6.93;;;3.72;;
22415;SDS011;12204;50.600;4.608;2023-02-15T13:44:55;7.53;;;4.20;;
22415;SDS011;12204;50.600;4.608;2023-02-15T13:50:19;7.22;;;3.95;;
22415;SDS011;12204;50.600;4.608;2023-02-15T13:55:50;8.82;;;4.30;;
22415;SDS011;12204;50.600;4.608;2023-02-15T14:00:59;8.77;;;4.30;;
22415;SDS011;12204;50.600;4.608;2023-02-15T14:06:14;7.35;;;4.05;;
22415;SDS011;12204;50.600;4.608;2023-02-15T14:11:53;9.57;;;3.90;;
22415;SDS011;12204;50.600;4.608;2023-02-15T14:17:20;11.23;;;4.43;;
22415;SDS011;12204;50.600;4.608;2023-02-15T14:22:33;8.98;;;4.15;;
22415;SDS011;12204;50.600;4.608;2023-02-15T14:27:48;8.13;;;4.20;;
22415;SDS011;12204;50.600;4.608;2023-02-15T14:33:03;8.15;;;4.30;;
22415;SDS011;12204;50.600;4.608;2023-02-15T14:38:12;8.90;;;3.95;;
22415;SDS011;12204;50.600;4.608;2023-02-15T14:43:46;6.57;;;3.65;;
22415;SDS011;12204;50.600;4.608;2023-02-15T14:49:03;8.15;;;3.83;;
22415;SDS011;12204;50.600;4.608;2023-02-15T15:00:00;7.93;;;4.00;;
22415;SDS011;12204;50.600;4.608;2023-02-15T15:05:46;9.50;;;4.20;;
22415;SDS011;12204;50.600;4.608;2023-02-15T15:10:54;10.30;;;4.30;;
22415;SDS011;12204;50.600;4.608;2023-02-15T15:16:01;7.78;;;4.55;;
22415;SDS011;12204;50.600;4.608;2023-02-15T15:21:54;8.88;;;4.63;;
22415;SDS011;12204;50.600;4.608;2023-02-15T15:32:54;7.47;;;4.10;;
22415;SDS011;12204;50.600;4.608;2023-02-15T15:38:15;8.40;;;4.00;;
22415;SDS011;12204;50.600;4.608;2023-02-15T15:43:42;7.78;;;4.07;;
22415;SDS011;12204;50.600;4.608;2023-02-15T15:49:24;8.13;;;4.10;;
22415;SDS011;12204;50.600;4.608;2023-02-15T15:54:33;7.68;;;4.03;;
22415;SDS011;12204;50.600;4.608;2023-02-15T15:59:43;8.53;;;4.30;;
22415;SDS011;12204;50.600;4.608;2023-02-15T16:04:49;7.25;;;3.85;;
22415;SDS011;12204;50.600;4.608;2023-02-15T16:09:53;8.38;;;4.18;;
22415;SDS011;12204;50.600;4.608;2023-02-15T16:15:00;7.83;;;4.07;;
22415;SDS011;12204;50.600;4.608;2023-02-15T16:20:16;7.18;;;4.03;;
22415;SDS011;12204;50.600;4.608;2023-02-15T16:25:26;9.48;;;3.92;;
22415;SDS011;12204;50.600;4.608;2023-02-15T16:30:41;7.63;;;4.10;;
22415;SDS011;12204;50.600;4.608;2023-02-15T16:35:54;7.68;;;3.92;;
22415;SDS011;12204;50.600;4.608;2023-02-15T16:41:00;7.45;;;4.25;;
22415;SDS011;12204;50.600;4.608;2023-02-15T16:46:05;7.07;;;4.03;;
22415;SDS011;12204;50.600;4.608;2023-02-15T16:51:18;9.57;;;4.03;;
22415;SDS011;12204;50.600;4.608;2023-02-15T16:56:29;9.55;;;4.15;;
22415;SDS011;12204;50.600;4.608;2023-02-15T17:01:33;8.45;;;3.90;;
22415;SDS011;12204;50.600;4.608;2023-02-15T17:06:38;6.70;;;3.78;;
22415;SDS011;12204;50.600;4.608;2023-02-15T17:11:42;7.15;;;3.90;;
22415;SDS011;12204;50.600;4.608;2023-02-15T17:16:47;7.07;;;3.88;;
22415;SDS011;12204;50.600;4.608;2023-02-15T17:21:56;7.03;;;3.70;;
22415;SDS011;12204;50.600;4.608;2023-02-15T17:27:02;6.80;;;4.00;;
22415;SDS011;12204;50.600;4.608;2023-02-15T17:32:15;6.70;;;4.03;;
22415;SDS011;12204;50.600;4.608;2023-02-15T17:37:26;7.18;;;3.67;;
22415;SDS011;12204;50.600;4.608;2023-02-15T17:42:34;8.52;;;4.30;;
22415;SDS011;12204;50.600;4.608;2023-02-15T17:47:37;7.20;;;4.10;;
22415;SDS011;12204;50.600;4.608;2023-02-15T17:52:42;8.05;;;4.13;;
22415;SDS011;12204;50.600;4.608;2023-02-15T17:57:46;7.20;;;4.10;;
22415;SDS011;12204;50.600;4.608;2023-02-15T18:02:50;8.52;;;4.15;;
22415;SDS011;12204;50.600;4.608;2023-02-15T18:08:14;7.13;;;3.85;;
22415;SDS011;12204;50.600;4.608;2023-02-15T18:13:38;7.13;;;3.80;;
22415;SDS011;12204;50.600;4.608;2023-02-15T18:18:42;8.95;;;4.18;;
22415;SDS011;12204;50.600;4.608;2023-02-15T18:23:48;7.22;;;4.03;;
22415;SDS011;12204;50.600;4.608;2023-02-15T18:28:51;7.75;;;3.85;;
22415;SDS011;12204;50.600;4.608;2023-02-15T18:33:56;6.85;;;3.70;;
22415;SDS011;12204;50.600;4.608;2023-02-15T18:39:02;7.72;;;3.95;;
22415;SDS011;12204;50.600;4.608;2023-02-15T18:44:26;6.95;;;3.75;;
22415;SDS011;12204;50.600;4.608;2023-02-15T18:49:29;8.80;;;4.10;;
22415;SDS011;12204;50.600;4.608;2023-02-15T18:54:34;7.95;;;4.28;;
22415;SDS011;12204;50.600;4.608;2023-02-15T18:59:38;7.78;;;4.10;;
22415;SDS011;12204;50.600;4.608;2023-02-15T19:04:41;7.82;;;4.22;;
22415;SDS011;12204;50.600;4.608;2023-02-15T19:09:48;7.20;;;3.90;;
22415;SDS011;12204;50.600;4.608;2023-02-15T19:14:56;7.43;;;4.13;;
22415;SDS011;12204;50.600;4.608;2023-02-15T19:20:00;8.40;;;4.10;;
22415;SDS011;12204;50.600;4.608;2023-02-15T19:25:04;8.18;;;4.25;;
22415;SDS011;12204;50.600;4.608;2023-02-15T19:30:11;6.97;;;3.83;;
22415;SDS011;12204;50.600;4.608;2023-02-15T19:35:20;6.78;;;4.10;;
22415;SDS011;12204;50.600;4.608;2023-02-15T19:40:28;7.38;;;4.25;;
22415;SDS011;12204;50.600;4.608;2023-02-15T19:45:35;7.90;;;4.05;;
22415;SDS011;12204;50.600;4.608;2023-02-15T19:50:39;7.63;;;4.30;;
22415;SDS011;12204;50.600;4.608;2023-02-15T19:55:46;6.63;;;3.97;;
22415;SDS011;12204;50.600;4.608;2023-02-15T20:00:50;7.25;;;4.07;;
22415;SDS011;12204;50.600;4.608;2023-02-15T20:05:54;7.47;;;4.20;;
22415;SDS011;12204;50.600;4.608;2023-02-15T20:10:59;8.43;;;4.45;;
22415;SDS011;12204;50.600;4.608;2023-02-15T20:16:03;7.93;;;4.30;;
22415;SDS011;12204;50.600;4.608;2023-02-15T20:21:08;7.60;;;4.32;;
22415;SDS011;12204;50.600;4.608;2023-02-15T20:26:18;8.00;;;4.53;;
22415;SDS011;12204;50.600;4.608;2023-02-15T20:31:23;7.22;;;4.55;;
22415;SDS011;12204;50.600;4.608;2023-02-15T20:36:27;6.88;;;4.18;;
22415;SDS011;12204;50.600;4.608;2023-02-15T20:41:31;8.57;;;4.55;;
22415;SDS011;12204;50.600;4.608;2023-02-15T20:46:39;7.57;;;4.35;;
22415;SDS011;12204;50.600;4.608;2023-02-15T20:51:43;11.00;;;4.45;;
22415;SDS011;12204;50.600;4.608;2023-02-15T20:56:49;9.00;;;4.25;;
22415;SDS011;12204;50.600;4.608;2023-02-15T21:01:55;9.65;;;4.53;;
22415;SDS011;12204;50.600;4.608;2023-02-15T21:07:02;8.05;;;4.43;;
22415;SDS011;12204;50.600;4.608;2023-02-15T21:12:08;7.95;;;4.53;;
22415;SDS011;12204;50.600;4.608;2023-02-15T21:17:16;9.15;;;4.63;;
22415;SDS011;12204;50.600;4.608;2023-02-15T21:22:21;8.82;;;4.60;;
22415;SDS011;12204;50.600;4.608;2023-02-15T21:27:27;8.45;;;4.90;;
22415;SDS011;12204;50.600;4.608;2023-02-15T21:32:30;9.07;;;4.80;;
22415;SDS011;12204;50.600;4.608;2023-02-15T21:37:35;8.52;;;4.97;;
22415;SDS011;12204;50.600;4.608;2023-02-15T21:42:41;8.35;;;4.70;;
22415;SDS011;12204;50.600;4.608;2023-02-15T21:48:02;8.95;;;5.10;;
22415;SDS011;12204;50.600;4.608;2023-02-15T21:53:08;8.52;;;4.82;;
22415;SDS011;12204;50.600;4.608;2023-02-15T21:58:18;9.02;;;5.25;;
22415;SDS011;12204;50.600;4.608;2023-02-15T22:03:28;9.93;;;5.45;;
22415;SDS011;12204;50.600;4.608;2023-02-15T22:08:35;10.93;;;5.18;;
22415;SDS011;12204;50.600;4.608;2023-02-15T22:13:40;9.48;;;5.72;;
22415;SDS011;12204;50.600;4.608;2023-02-15T22:18:45;10.60;;;5.40;;
22415;SDS011;12204;50.600;4.608;2023-02-15T22:23:49;11.30;;;5.60;;
22415;SDS011;12204;50.600;4.608;2023-02-15T22:28:55;10.15;;;5.47;;
22415;SDS011;12204;50.600;4.608;2023-02-15T22:33:59;10.60;;;5.70;;
22415;SDS011;12204;50.600;4.608;2023-02-15T22:39:02;9.32;;;5.90;;
22415;SDS011;12204;50.600;4.608;2023-02-15T22:44:08;12.02;;;6.03;;
22415;SDS011;12204;50.600;4.608;2023-02-15T22:49:14;8.95;;;5.30;;
22415;SDS011;12204;50.600;4.608;2023-02-15T22:54:17;9.45;;;5.25;;
22415;SDS011;12204;50.600;4.608;2023-02-15T22:59:24;10.38;;;5.80;;
22415;SDS011;12204;50.600;4.608;2023-02-15T23:04:30;11.07;;;5.90;;
22415;SDS011;12204;50.600;4.608;2023-02-15T23:09:34;9.45;;;5.82;;
22415;SDS011;12204;50.600;4.608;2023-02-15T23:14:39;9.90;;;5.80;;
22415;SDS011;12204;50.600;4.608;2023-02-15T23:19:42;10.05;;;5.90;;
22415;SDS011;12204;50.600;4.608;2023-02-15T23:24:46;9.63;;;5.60;;
22415;SDS011;12204;50.600;4.608;2023-02-15T23:29:55;9.63;;;5.80;;
22415;SDS011;12204;50.600;4.608;2023-02-15T23:34:59;10.32;;;5.88;;
22415;SDS011;12204;50.600;4.608;2023-02-15T23:40:02;11.70;;;5.97;;
22415;SDS011;12204;50.600;4.608;2023-02-15T23:45:26;10.63;;;5.82;;
22415;SDS011;12204;50.600;4.608;2023-02-15T23:50:29;10.63;;;5.90;;
22415;SDS011;12204;50.600;4.608;2023-02-15T23:55:34;11.63;;;6.00;;
